Time;durP1;ratioP1;P1;durP2;ratioP2;P2;SDS_P1;SDS_P2;PMS_P1;PMS_P2;Temp;Humidity;BMP_temperature;BMP_pressure;BME280_temperature;BME280_humidity;BME280_pressure;Samples;Min_cycle;Max_cycle;Signal;HPM_P1;HPM_P2
2023/03/05 00:01:11;;;;;;;0.20;0.20;;;;;;;;;;4995806;28;20464;-68
2023/03/05 00:03:38;;;;;;;0.20;0.20;;;;;;;;;;5005018;28;20209;-69
2023/03/05 00:06:06;;;;;;;0.20;0.20;;;;;;;;;;4995620;28;20241;-71
2023/03/05 00:08:32;;;;;;;0.20;0.20;;;;;;;;;;5005924;28;20513;-67
2023/03/05 00:11:00;;;;;;;0.20;0.20;;;;;;;;;;4995835;28;20245;-68
2023/03/05 00:13:26;;;;;;;0.20;0.20;;;;;;;;;;5005717;28;20468;-68
2023/03/05 00:15:52;;;;;;;0.20;0.20;;;;;;;;;;4995833;28;20248;-68
2023/03/05 00:18:19;;;;;;;0.20;0.20;;;;;;;;;;5005309;28;20214;-69
2023/03/05 00:20:46;;;;;;;0.20;0.20;;;;;;;;;;4995685;28;20249;-68
2023/03/05 00:23:14;;;;;;;0.20;0.20;;;;;;;;;;5005307;28;20283;-68
2023/03/05 00:25:41;;;;;;;0.20;0.20;;;;;;;;;;4995956;28;20261;-68
2023/03/05 00:28:08;;;;;;;0.20;0.20;;;;;;;;;;5005073;28;20228;-67
2023/03/05 00:30:35;;;;;;;0.20;0.20;;;;;;;;;;4995591;28;20320;-67
2023/03/05 00:33:01;;;;;;;0.20;0.20;;;;;;;;;;5005010;28;20237;-67
2023/03/05 00:35:27;;;;;;;0.20;0.20;;;;;;;;;;4995669;28;20268;-67
2023/03/05 00:37:54;;;;;;;0.20;0.20;;;;;;;;;;5004850;28;20244;-67
2023/03/05 00:40:22;;;;;;;0.20;0.20;;;;;;;;;;4995691;28;20228;-67
2023/03/05 00:42:48;;;;;;;0.20;0.20;;;;;;;;;;5004317;28;20275;-67
2023/03/05 00:45:14;;;;;;;0.20;0.20;;;;;;;;;;4995374;28;20208;-68
2023/03/05 00:47:41;;;;;;;0.20;0.20;;;;;;;;;;5004573;28;20208;-67
2023/03/05 00:50:08;;;;;;;0.20;0.20;;;;;;;;;;4998582;28;20280;-67
2023/03/05 00:52:35;;;;;;;0.20;0.20;;;;;;;;;;5004324;28;20224;-67
2023/03/05 00:55:01;;;;;;;0.20;0.20;;;;;;;;;;5005510;28;20285;-67
2023/03/05 00:57:29;;;;;;;0.20;0.20;;;;;;;;;;4994574;28;20244;-68
2023/03/05 00:59:55;;;;;;;0.20;0.20;;;;;;;;;;5005357;28;20511;-67
2023/03/05 01:02:22;;;;;;;0.20;0.20;;;;;;;;;;4994438;28;20590;-69
2023/03/05 01:04:48;;;;;;;0.20;0.20;;;;;;;;;;5005294;28;20241;-67
2023/03/05 01:07:14;;;;;;;0.20;0.20;;;;;;;;;;4994213;28;20351;-67
2023/03/05 01:09:41;;;;;;;0.20;0.20;;;;;;;;;;5005246;28;20281;-69
2023/03/05 01:12:07;;;;;;;0.20;0.20;;;;;;;;;;4994172;28;20307;-69
2023/03/05 01:14:35;;;;;;;0.20;0.20;;;;;;;;;;5005229;28;20540;-67
2023/03/05 01:17:02;;;;;;;0.20;0.20;;;;;;;;;;4993835;28;20244;-67
2023/03/05 01:19:28;;;;;;;0.20;0.20;;;;;;;;;;5005056;28;20209;-68
2023/03/05 01:21:55;;;;;;;0.20;0.20;;;;;;;;;;4993973;28;20483;-68
2023/03/05 01:24:21;;;;;;;0.20;0.20;;;;;;;;;;5004658;28;20252;-67
2023/03/05 01:26:48;;;;;;;0.20;0.20;;;;;;;;;;4994036;28;20308;-67
2023/03/05 01:29:14;;;;;;;0.20;0.20;;;;;;;;;;5004745;28;20558;-67
2023/03/05 01:31:42;;;;;;;0.20;0.20;;;;;;;;;;4994091;28;20255;-68
2023/03/05 01:34:08;;;;;;;0.20;0.20;;;;;;;;;;5004528;28;20216;-67
2023/03/05 01:36:35;;;;;;;0.20;0.20;;;;;;;;;;4993874;28;20312;-67
2023/03/05 01:39:01;;;;;;;0.20;0.20;;;;;;;;;;5004506;28;20208;-69
2023/03/05 01:41:28;;;;;;;0.20;0.20;;;;;;;;;;4993710;28;20244;-68
2023/03/05 01:43:54;;;;;;;0.20;0.20;;;;;;;;;;5004122;28;20225;-68
2023/03/05 01:46:25;;;;;;;0.20;0.20;;;;;;;;;;4994063;28;20455;-67
2023/03/05 01:48:54;;;;;;;0.20;0.20;;;;;;;;;;5004206;28;20261;-68
2023/03/05 01:51:22;;;;;;;0.20;0.20;;;;;;;;;;4993906;28;20240;-68
2023/03/05 01:53:48;;;;;;;0.20;0.20;;;;;;;;;;5004208;28;20213;-68
2023/03/05 01:56:15;;;;;;;0.20;0.20;;;;;;;;;;4993993;28;20305;-68
2023/03/05 01:58:42;;;;;;;0.20;0.20;;;;;;;;;;5004101;28;20236;-68
2023/03/05 02:01:08;;;;;;;0.20;0.20;;;;;;;;;;4994021;28;20264;-68
2023/03/05 02:03:35;;;;;;;0.20;0.20;;;;;;;;;;5003698;28;20244;-68
2023/03/05 02:06:03;;;;;;;0.20;0.20;;;;;;;;;;4993991;28;20572;-68
2023/03/05 02:08:29;;;;;;;0.20;0.20;;;;;;;;;;5003815;28;20247;-68
2023/03/05 02:10:56;;;;;;;0.20;0.20;;;;;;;;;;4993772;28;20240;-68
2023/03/05 02:13:24;;;;;;;0.20;0.20;;;;;;;;;;5003707;28;20243;-68
2023/03/05 02:15:51;;;;;;;0.20;0.20;;;;;;;;;;4994002;28;20317;-68
2023/03/05 02:18:17;;;;;;;0.20;0.20;;;;;;;;;;5003309;28;20280;-68
2023/03/05 02:20:45;;;;;;;0.20;0.20;;;;;;;;;;4994012;28;20576;-68
2023/03/05 02:23:13;;;;;;;0.20;0.20;;;;;;;;;;5003419;28;20280;-68
2023/03/05 02:25:39;;;;;;;0.20;0.20;;;;;;;;;;4994100;28;20260;-69
2023/03/05 02:28:08;;;;;;;0.20;0.20;;;;;;;;;;5005407;28;20276;-69
2023/03/05 02:30:36;;;;;;;0.20;0.20;;;;;;;;;;4997847;28;20243;-68
2023/03/05 02:33:02;;;;;;;0.10;0.10;;;;;;;;;;5007025;28;20242;-68
2023/03/05 02:35:29;;;;;;;0.20;0.20;;;;;;;;;;4997797;28;20275;-68
2023/03/05 02:37:55;;;;;;;0.20;0.20;;;;;;;;;;5007053;28;20280;-68
2023/03/05 02:40:23;;;;;;;0.20;0.20;;;;;;;;;;4997976;28;20462;-68
2023/03/05 02:42:49;;;;;;;0.20;0.20;;;;;;;;;;5006553;28;20311;-68
2023/03/05 02:45:16;;;;;;;0.20;0.20;;;;;;;;;;4997635;28;20279;-68
2023/03/05 02:47:42;;;;;;;0.20;0.20;;;;;;;;;;5006923;28;20410;-69
2023/03/05 02:50:10;;;;;;;0.20;0.20;;;;;;;;;;4997903;28;20395;-69
2023/03/05 02:52:36;;;;;;;0.20;0.20;;;;;;;;;;5006824;28;20211;-68
2023/03/05 02:55:03;;;;;;;0.20;0.20;;;;;;;;;;5007724;28;20236;-68
2023/03/05 02:57:30;;;;;;;0.20;0.20;;;;;;;;;;4996685;28;20264;-68
2023/03/05 02:59:57;;;;;;;0.20;0.20;;;;;;;;;;5007641;28;20532;-68
2023/03/05 03:02:23;;;;;;;0.20;0.20;;;;;;;;;;4996604;28;20240;-68
2023/03/05 03:04:49;;;;;;;0.20;0.20;;;;;;;;;;5007510;28;20278;-68
2023/03/05 03:07:16;;;;;;;0.20;0.20;;;;;;;;;;4996476;28;20252;-68
2023/03/05 03:09:42;;;;;;;0.20;0.20;;;;;;;;;;5007196;28;20227;-67
2023/03/05 03:12:09;;;;;;;0.20;0.20;;;;;;;;;;4996345;28;20241;-68
2023/03/05 03:14:38;;;;;;;0.20;0.20;;;;;;;;;;5007393;28;20539;-68
2023/03/05 03:17:04;;;;;;;0.20;0.20;;;;;;;;;;4996319;28;20254;-68
2023/03/05 03:19:31;;;;;;;0.20;0.20;;;;;;;;;;5007023;28;20252;-68
2023/03/05 03:21:57;;;;;;;0.20;0.20;;;;;;;;;;4996228;28;20259;-68
2023/03/05 03:24:23;;;;;;;0.20;0.20;;;;;;;;;;5007179;28;20559;-68
2023/03/05 03:26:50;;;;;;;0.20;0.20;;;;;;;;;;4996307;28;20244;-68
2023/03/05 03:29:16;;;;;;;0.20;0.20;;;;;;;;;;5007025;28;20246;-68
2023/03/05 03:31:44;;;;;;;0.20;0.20;;;;;;;;;;4996155;28;20240;-68
2023/03/05 03:34:11;;;;;;;0.20;0.20;;;;;;;;;;5006597;28;20284;-68
2023/03/05 03:36:37;;;;;;;0.20;0.20;;;;;;;;;;4996199;28;20582;-68
2023/03/05 03:39:04;;;;;;;0.20;0.20;;;;;;;;;;5006723;28;20214;-68
2023/03/05 03:41:31;;;;;;;0.20;0.20;;;;;;;;;;4995695;28;20236;-68
2023/03/05 03:43:57;;;;;;;0.20;0.20;;;;;;;;;;5006592;28;20395;-68
2023/03/05 03:46:24;;;;;;;0.20;0.20;;;;;;;;;;4996032;28;20244;-68
2023/03/05 03:48:51;;;;;;;0.20;0.20;;;;;;;;;;5006372;28;20394;-68
2023/03/05 03:51:18;;;;;;;0.20;0.20;;;;;;;;;;4996130;28;20575;-68
2023/03/05 03:53:44;;;;;;;0.20;0.20;;;;;;;;;;5006031;28;20246;-68
2023/03/05 03:56:10;;;;;;;0.20;0.20;;;;;;;;;;4995929;28;20246;-68
2023/03/05 03:58:37;;;;;;;0.20;0.20;;;;;;;;;;5005863;28;20248;-68
2023/03/05 04:01:03;;;;;;;0.20;0.20;;;;;;;;;;4995961;28;20568;-68
2023/03/05 04:03:30;;;;;;;0.20;0.20;;;;;;;;;;5006021;28;20276;-68
2023/03/05 04:05:57;;;;;;;0.20;0.20;;;;;;;;;;4995778;28;20306;-68
2023/03/05 04:08:24;;;;;;;0.20;0.20;;;;;;;;;;5005514;28;20214;-68
2023/03/05 04:10:50;;;;;;;0.20;0.20;;;;;;;;;;4995815;28;20250;-68
2023/03/05 04:13:16;;;;;;;0.20;0.20;;;;;;;;;;5005563;28;20208;-68
2023/03/05 04:15:43;;;;;;;0.20;0.20;;;;;;;;;;4995918;28;20262;-68
2023/03/05 04:18:09;;;;;;;0.20;0.20;;;;;;;;;;5005394;28;20246;-68
2023/03/05 04:20:36;;;;;;;0.20;0.20;;;;;;;;;;4995945;28;20441;-68
2023/03/05 04:23:04;;;;;;;0.20;0.20;;;;;;;;;;5005255;28;20474;-68
2023/03/05 04:25:30;;;;;;;0.20;0.20;;;;;;;;;;4996099;28;20256;-68
2023/03/05 04:27:56;;;;;;;0.20;0.20;;;;;;;;;;5005133;28;20211;-68
2023/03/05 04:30:23;;;;;;;0.20;0.20;;;;;;;;;;4995723;28;20239;-68
2023/03/05 04:32:49;;;;;;;0.20;0.20;;;;;;;;;;5004894;28;20243;-69
2023/03/05 04:35:16;;;;;;;0.20;0.20;;;;;;;;;;4995904;28;20242;-68
2023/03/05 04:37:42;;;;;;;0.20;0.20;;;;;;;;;;5004661;28;20207;-68
2023/03/05 04:40:11;;;;;;;0.20;0.20;;;;;;;;;;4997457;28;20243;-68
2023/03/05 04:42:37;;;;;;;0.20;0.20;;;;;;;;;;5004084;28;20270;-68
2023/03/05 04:45:04;;;;;;;0.20;0.20;;;;;;;;;;5005706;28;20510;-68
2023/03/05 04:47:30;;;;;;;0.20;0.20;;;;;;;;;;4994542;28;20243;-68
2023/03/05 04:49:57;;;;;;;0.20;0.20;;;;;;;;;;5004907;28;20209;-68
2023/03/05 04:52:23;;;;;;;0.20;0.20;;;;;;;;;;4994613;28;20498;-68
2023/03/05 04:54:49;;;;;;;0.20;0.20;;;;;;;;;;5005494;28;20302;-68
2023/03/05 04:57:17;;;;;;;0.20;0.20;;;;;;;;;;4994423;28;20245;-68
2023/03/05 04:59:44;;;;;;;0.20;0.20;;;;;;;;;;5005392;28;20207;-68
2023/03/05 05:02:10;;;;;;;0.20;0.20;;;;;;;;;;4993853;28;20246;-68
2023/03/05 05:04:36;;;;;;;0.20;0.20;;;;;;;;;;5005208;28;20250;-71
2023/03/05 05:07:03;;;;;;;0.20;0.20;;;;;;;;;;4994235;28;20313;-68
2023/03/05 05:09:30;;;;;;;0.20;0.20;;;;;;;;;;5005261;28;20462;-68
2023/03/05 05:11:56;;;;;;;0.20;0.20;;;;;;;;;;4994138;28;20308;-68
2023/03/05 05:14:24;;;;;;;0.20;0.20;;;;;;;;;;5004803;28;20280;-68
2023/03/05 05:16:50;;;;;;;0.20;0.20;;;;;;;;;;4994037;28;20314;-68
2023/03/05 05:19:16;;;;;;;0.30;0.30;;;;;;;;;;5004670;28;20235;-68
2023/03/05 05:21:43;;;;;;;0.30;0.30;;;;;;;;;;4994091;28;20637;-68
2023/03/05 05:24:09;;;;;;;0.20;0.20;;;;;;;;;;5004859;28;20207;-71
2023/03/05 05:26:36;;;;;;;0.20;0.20;;;;;;;;;;4994169;28;20251;-68
2023/03/05 05:29:02;;;;;;;0.20;0.20;;;;;;;;;;5004735;28;20242;-68
2023/03/05 05:31:30;;;;;;;0.20;0.20;;;;;;;;;;4994049;28;20307;-68
2023/03/05 05:33:58;;;;;;;0.20;0.20;;;;;;;;;;5004202;28;20279;-68
2023/03/05 05:36:24;;;;;;;0.20;0.20;;;;;;;;;;4993954;28;20259;-68
2023/03/05 05:38:51;;;;;;;0.20;0.20;;;;;;;;;;5004124;28;20280;-68
2023/03/05 05:41:18;;;;;;;0.20;0.20;;;;;;;;;;4993830;28;20260;-68
2023/03/05 05:43:45;;;;;;;0.20;0.20;;;;;;;;;;5004203;28;20223;-68
2023/03/05 05:46:12;;;;;;;0.20;0.20;;;;;;;;;;4994069;28;20245;-68
2023/03/05 05:48:40;;;;;;;0.20;0.20;;;;;;;;;;5003918;28;20216;-68
2023/03/05 05:51:07;;;;;;;0.20;0.20;;;;;;;;;;4993644;28;20309;-68
2023/03/05 05:53:33;;;;;;;0.20;0.20;;;;;;;;;;5003830;28;20270;-68
2023/03/05 05:56:00;;;;;;;0.20;0.20;;;;;;;;;;4993902;28;20312;-68
2023/03/05 05:58:26;;;;;;;0.20;0.20;;;;;;;;;;5003676;28;20283;-68
2023/03/05 06:00:52;;;;;;;0.20;0.20;;;;;;;;;;4994032;28;20482;-68
2023/03/05 06:03:19;;;;;;;0.20;0.20;;;;;;;;;;5002946;28;20532;-68
2023/03/05 06:05:47;;;;;;;0.20;0.20;;;;;;;;;;4994101;28;20352;-68
2023/03/05 06:08:13;;;;;;;0.20;0.20;;;;;;;;;;5003553;28;20212;-68
2023/03/05 06:10:40;;;;;;;0.20;0.20;;;;;;;;;;4994139;28;20311;-68
2023/03/05 06:13:06;;;;;;;0.20;0.20;;;;;;;;;;5003495;28;20205;-68
2023/03/05 06:15:33;;;;;;;0.20;0.20;;;;;;;;;;4993917;28;20256;-68
2023/03/05 06:17:59;;;;;;;0.20;0.20;;;;;;;;;;5003350;28;20248;-68
2023/03/05 06:20:26;;;;;;;0.20;0.20;;;;;;;;;;4994158;28;20213;-68
2023/03/05 06:22:54;;;;;;;0.20;0.20;;;;;;;;;;5003188;28;20236;-68
2023/03/05 06:25:20;;;;;;;0.20;0.20;;;;;;;;;;4993949;28;20240;-68
2023/03/05 06:27:46;;;;;;;0.20;0.20;;;;;;;;;;5003153;28;20222;-68
2023/03/05 06:30:13;;;;;;;0.20;0.20;;;;;;;;;;4994069;28;20209;-67
2023/03/05 06:32:39;;;;;;;0.20;0.20;;;;;;;;;;5003039;28;20280;-68
2023/03/05 06:35:06;;;;;;;0.17;0.17;;;;;;;;;;5003920;28;20231;-68
2023/03/05 06:37:34;;;;;;;0.20;0.20;;;;;;;;;;4976840;28;20209;-68
2023/03/05 06:40:02;;;;;;;0.20;0.20;;;;;;;;;;5003830;28;20277;-68
2023/03/05 06:42:28;;;;;;;0.20;0.20;;;;;;;;;;4992739;28;20303;-68
2023/03/05 06:44:54;;;;;;;0.20;0.20;;;;;;;;;;5004058;28;20434;-68
2023/03/05 06:47:21;;;;;;;0.20;0.20;;;;;;;;;;4993117;28;20296;-69
2023/03/05 06:49:47;;;;;;;0.20;0.20;;;;;;;;;;5003672;28;20208;-68
2023/03/05 06:52:13;;;;;;;0.20;0.20;;;;;;;;;;4992873;28;20255;-69
2023/03/05 06:54:40;;;;;;;0.20;0.20;;;;;;;;;;5003644;28;20240;-68
2023/03/05 06:57:09;;;;;;;0.20;0.20;;;;;;;;;;4992974;28;20471;-68
2023/03/05 06:59:35;;;;;;;0.20;0.20;;;;;;;;;;5003744;28;20209;-68
2023/03/05 07:02:01;;;;;;;0.20;0.20;;;;;;;;;;4992713;28;20308;-68
2023/03/05 07:04:28;;;;;;;0.20;0.20;;;;;;;;;;5003881;28;20293;-68
2023/03/05 07:06:54;;;;;;;0.20;0.20;;;;;;;;;;4992861;28;20244;-68
2023/03/05 07:09:21;;;;;;;0.20;0.20;;;;;;;;;;5003500;28;20208;-68
2023/03/05 07:11:47;;;;;;;0.20;0.20;;;;;;;;;;4992880;28;20312;-68
2023/03/05 07:14:15;;;;;;;0.20;0.20;;;;;;;;;;5005722;28;20284;-68
2023/03/05 07:16:41;;;;;;;0.17;0.17;;;;;;;;;;4996513;28;20244;-68
2023/03/05 07:19:09;;;;;;;0.20;0.20;;;;;;;;;;5007194;28;20271;-68
2023/03/05 07:21:36;;;;;;;0.20;0.20;;;;;;;;;;4996420;28;20244;-68
2023/03/05 07:24:03;;;;;;;0.20;0.20;;;;;;;;;;5006913;28;20566;-68
2023/03/05 07:26:30;;;;;;;0.20;0.20;;;;;;;;;;4996522;28;20333;-68
2023/03/05 07:28:56;;;;;;;0.20;0.20;;;;;;;;;;5006631;28;20215;-68
2023/03/05 07:31:25;;;;;;;0.20;0.20;;;;;;;;;;4996390;28;20308;-68
2023/03/05 07:33:52;;;;;;;0.20;0.20;;;;;;;;;;5006416;28;20216;-68
2023/03/05 07:36:18;;;;;;;0.20;0.20;;;;;;;;;;4996503;28;20312;-68
2023/03/05 07:38:45;;;;;;;0.20;0.20;;;;;;;;;;5006676;28;20284;-68
2023/03/05 07:41:13;;;;;;;0.20;0.20;;;;;;;;;;4995912;28;20313;-68
2023/03/05 07:43:39;;;;;;;0.20;0.20;;;;;;;;;;5006452;28;20580;-68
2023/03/05 07:46:06;;;;;;;0.10;0.10;;;;;;;;;;4996415;28;20598;-68
2023/03/05 07:48:34;;;;;;;0.20;0.20;;;;;;;;;;5006338;28;20526;-68
2023/03/05 07:51:01;;;;;;;0.20;0.20;;;;;;;;;;4996382;28;20243;-68
2023/03/05 07:53:27;;;;;;;0.10;0.10;;;;;;;;;;5006165;28;20229;-68
2023/03/05 07:55:53;;;;;;;0.20;0.20;;;;;;;;;;4996047;28;20312;-68
2023/03/05 07:58:20;;;;;;;0.20;0.20;;;;;;;;;;5005685;28;20240;-68
2023/03/05 08:00:46;;;;;;;0.20;0.20;;;;;;;;;;4996294;28;20603;-68
2023/03/05 08:03:13;;;;;;;0.13;0.13;;;;;;;;;;5005684;28;20249;-68
2023/03/05 08:05:40;;;;;;;0.20;0.20;;;;;;;;;;4996058;28;20311;-68
2023/03/05 08:08:07;;;;;;;0.20;0.20;;;;;;;;;;5005360;28;20287;-68
2023/03/05 08:10:34;;;;;;;0.30;0.30;;;;;;;;;;4996219;28;20663;-68
2023/03/05 08:13:00;;;;;;;0.10;0.10;;;;;;;;;;5005500;28;20448;-68
2023/03/05 08:15:27;;;;;;;0.20;0.20;;;;;;;;;;4996305;28;20206;-68
2023/03/05 08:17:53;;;;;;;0.10;0.10;;;;;;;;;;5005291;28;20215;-68
2023/03/05 08:20:19;;;;;;;0.20;0.20;;;;;;;;;;4996231;28;20280;-67
2023/03/05 08:22:47;;;;;;;0.20;0.20;;;;;;;;;;5005137;28;20301;-68
2023/03/05 08:25:13;;;;;;;0.10;0.10;;;;;;;;;;4995025;28;20217;-68
2023/03/05 08:27:40;;;;;;;0.20;0.20;;;;;;;;;;5005216;28;20274;-68
2023/03/05 08:30:08;;;;;;;0.10;0.10;;;;;;;;;;5004873;28;20250;-68
2023/03/05 08:32:34;;;;;;;0.20;0.20;;;;;;;;;;5004804;28;20226;-68
2023/03/05 08:35:01;;;;;;;0.20;0.20;;;;;;;;;;5005882;28;20449;-68
2023/03/05 08:37:28;;;;;;;0.10;0.10;;;;;;;;;;4994879;28;20246;-68
2023/03/05 08:39:56;;;;;;;0.10;0.10;;;;;;;;;;5005543;28;20272;-68
2023/03/05 08:42:22;;;;;;;0.13;0.13;;;;;;;;;;4994326;28;20289;-68
2023/03/05 08:44:49;;;;;;;0.10;0.10;;;;;;;;;;5005422;28;20205;-68
2023/03/05 08:47:15;;;;;;;0.10;0.10;;;;;;;;;;4994627;28;20241;-68
2023/03/05 08:49:41;;;;;;;0.10;0.10;;;;;;;;;;5005665;28;20490;-68
2023/03/05 08:52:08;;;;;;;0.10;0.10;;;;;;;;;;4994529;28;20266;-68
2023/03/05 08:54:34;;;;;;;0.10;0.10;;;;;;;;;;5005611;28;20235;-68
2023/03/05 08:57:02;;;;;;;0.10;0.10;;;;;;;;;;4994398;28;20270;-68
2023/03/05 08:59:28;;;;;;;0.10;0.10;;;;;;;;;;5005182;28;20279;-70
2023/03/05 09:01:54;;;;;;;0.10;0.10;;;;;;;;;;4994397;28;20465;-69
2023/03/05 09:04:21;;;;;;;0.13;0.13;;;;;;;;;;5005156;28;20446;-68
2023/03/05 09:06:47;;;;;;;0.10;0.10;;;;;;;;;;4994403;28;20257;-69
2023/03/05 09:09:13;;;;;;;0.10;0.10;;;;;;;;;;5005185;28;20242;-68
2023/03/05 09:11:40;;;;;;;0.20;0.20;;;;;;;;;;4994338;28;20306;-68
2023/03/05 09:14:08;;;;;;;0.17;0.17;;;;;;;;;;5005030;28;20203;-73
2023/03/05 09:16:35;;;;;;;0.10;0.10;;;;;;;;;;4994404;28;20468;-72
2023/03/05 09:19:01;;;;;;;0.10;0.10;;;;;;;;;;5004236;28;20207;-68
2023/03/05 09:21:28;;;;;;;0.10;0.10;;;;;;;;;;4994415;28;20271;-67
2023/03/05 09:23:58;;;;;;;0.17;0.17;;;;;;;;;;5004680;28;20298;-69
2023/03/05 09:26:25;;;;;;;0.10;0.10;;;;;;;;;;4994209;28;20242;-68
2023/03/05 09:28:51;;;;;;;0.10;0.10;;;;;;;;;;5004335;28;20277;-68
2023/03/05 09:31:19;;;;;;;0.10;0.10;;;;;;;;;;4994318;28;20608;-70
2023/03/05 09:33:48;;;;;;;0.20;0.20;;;;;;;;;;5004445;28;20446;-66
2023/03/05 09:36:17;;;;;;;0.10;0.10;;;;;;;;;;4994025;28;20245;-66
2023/03/05 09:38:43;;;;;;;0.13;0.13;;;;;;;;;;5004432;28;20397;-66
2023/03/05 09:41:15;;;;;;;0.20;0.20;;;;;;;;;;4993960;28;20252;-65
2023/03/05 09:43:47;;;;;;;0.20;0.20;;;;;;;;;;5004244;28;20282;-65
2023/03/05 09:46:17;;;;;;;0.20;0.20;;;;;;;;;;4994105;28;20470;-65
2023/03/05 09:49:00;;;;;;;0.10;0.10;;;;;;;;;;5003979;28;20209;-65
2023/03/05 09:51:29;;;;;;;0.13;0.13;;;;;;;;;;4993930;28;20313;-66
2023/03/05 09:53:59;;;;;;;0.10;0.10;;;;;;;;;;5004245;28;20274;-65
2023/03/05 09:56:28;;;;;;;0.10;0.10;;;;;;;;;;4993737;28;20245;-66
2023/03/05 09:58:56;;;;;;;0.20;0.20;;;;;;;;;;5003938;28;20274;-65
2023/03/05 10:01:25;;;;;;;0.10;0.10;;;;;;;;;;4993631;28;20242;-66
2023/03/05 10:03:57;;;;;;;0.10;0.10;;;;;;;;;;5003720;28;20549;-66
2023/03/05 10:06:24;;;;;;;0.13;0.13;;;;;;;;;;4993789;28;20594;-66
2023/03/05 10:08:53;;;;;;;0.10;0.10;;;;;;;;;;5003759;28;20277;-66
2023/03/05 10:11:30;;;;;;;0.13;0.13;;;;;;;;;;4993538;28;20264;-65
2023/03/05 10:13:56;;;;;;;0.17;0.17;;;;;;;;;;5004023;28;20497;-66
2023/03/05 10:16:35;;;;;;;0.17;0.17;;;;;;;;;;4993514;28;20241;-66
2023/03/05 10:19:07;;;;;;;0.10;0.10;;;;;;;;;;5004067;28;20221;-69
2023/03/05 10:21:38;;;;;;;0.10;0.10;;;;;;;;;;4993408;28;20265;-69
2023/03/05 10:24:10;;;;;;;0.10;0.10;;;;;;;;;;5003655;28;20229;-69
2023/03/05 10:26:43;;;;;;;0.13;0.13;;;;;;;;;;4993415;28;20241;-69
2023/03/05 10:29:18;;;;;;;0.10;0.10;;;;;;;;;;5004024;28;20524;-68
2023/03/05 10:31:52;;;;;;;0.17;0.17;;;;;;;;;;4993209;28;20241;-69
2023/03/05 10:34:36;;;;;;;0.10;0.10;;;;;;;;;;5003828;28;20234;-69
2023/03/05 10:37:10;;;;;;;0.10;0.10;;;;;;;;;;4963688;28;20243;-69
2023/03/05 10:39:51;;;;;;;0.20;0.20;;;;;;;;;;5004356;28;20197;-69
2023/03/05 10:42:22;;;;;;;0.10;0.10;;;;;;;;;;4992808;28;20325;-69
2023/03/05 10:44:50;;;;;;;0.10;0.10;;;;;;;;;;5003701;28;20225;-69
2023/03/05 10:47:22;;;;;;;0.20;0.20;;;;;;;;;;4992807;28;20312;-68
2023/03/05 10:49:50;;;;;;;0.10;0.10;;;;;;;;;;5007067;28;20194;-68
2023/03/05 10:52:21;;;;;;;0.17;0.17;;;;;;;;;;4996640;28;20319;-69
2023/03/05 10:54:47;;;;;;;0.20;0.20;;;;;;;;;;5007799;28;20409;-69
2023/03/05 10:57:16;;;;;;;0.13;0.13;;;;;;;;;;4996579;28;20301;-69
2023/03/05 10:59:44;;;;;;;0.20;0.20;;;;;;;;;;5007380;28;20209;-69
2023/03/05 11:02:11;;;;;;;0.10;0.10;;;;;;;;;;4996365;28;20265;-68
2023/03/05 11:04:38;;;;;;;0.10;0.10;;;;;;;;;;5007532;28;20553;-68
2023/03/05 11:07:28;;;;;;;0.20;0.20;;;;;;;;;;4996231;28;20517;-69
2023/03/05 11:10:03;;;;;;;0.10;0.10;;;;;;;;;;5007450;28;20539;-70
2023/03/05 11:12:31;;;;;;;0.10;0.10;;;;;;;;;;4996488;28;20261;-72
2023/03/05 11:15:05;;;;;;;0.10;0.10;;;;;;;;;;5007135;28;20208;-68
2023/03/05 11:17:33;;;;;;;0.17;0.17;;;;;;;;;;4996282;28;20553;-69
2023/03/05 11:20:14;;;;;;;0.10;0.10;;;;;;;;;;5006849;28;20441;-69
2023/03/05 11:22:40;;;;;;;0.10;0.10;;;;;;;;;;5000246;28;20213;-69
2023/03/05 11:25:17;;;;;;;0.10;0.10;;;;;;;;;;5005461;28;20266;-70
2023/03/05 11:27:48;;;;;;;0.10;0.10;;;;;;;;;;5006681;28;20234;-69
2023/03/05 11:30:21;;;;;;;0.10;0.10;;;;;;;;;;4996144;28;20201;-69
2023/03/05 11:32:48;;;;;;;0.10;0.10;;;;;;;;;;5005360;28;20206;-69
2023/03/05 11:35:28;;;;;;;0.10;0.10;;;;;;;;;;4996276;28;20233;-69
2023/03/05 11:37:59;;;;;;;0.20;0.20;;;;;;;;;;5005358;28;20207;-69
2023/03/05 11:40:27;;;;;;;0.10;0.10;;;;;;;;;;4996475;28;20265;-68
2023/03/05 11:42:55;;;;;;;0.10;0.10;;;;;;;;;;5004825;28;20304;-69
2023/03/05 11:45:22;;;;;;;0.10;0.10;;;;;;;;;;4996236;28;20231;-68
2023/03/05 11:47:49;;;;;;;0.20;0.20;;;;;;;;;;5005187;28;20407;-68
2023/03/05 11:50:20;;;;;;;0.13;0.13;;;;;;;;;;4995808;28;20246;-69
2023/03/05 11:52:48;;;;;;;1.33;1.13;;;;;;;;;;5004683;28;20244;-69
2023/03/05 11:55:15;;;;;;;0.10;0.10;;;;;;;;;;4995993;28;20542;-69
2023/03/05 11:57:44;;;;;;;0.20;0.20;;;;;;;;;;5004904;28;20455;-69
2023/03/05 12:00:18;;;;;;;0.10;0.10;;;;;;;;;;5004301;28;20215;-69
2023/03/05 12:02:52;;;;;;;0.20;0.20;;;;;;;;;;5001403;28;20444;-61
2023/03/05 12:05:20;;;;;;;0.10;0.10;;;;;;;;;;4995627;28;20219;-68
2023/03/05 12:07:48;;;;;;;0.10;0.10;;;;;;;;;;5004728;28;20279;-68
2023/03/05 12:10:16;;;;;;;0.10;0.10;;;;;;;;;;4995692;28;20485;-69
2023/03/05 12:12:46;;;;;;;0.10;0.10;;;;;;;;;;5004676;28;20454;-68
2023/03/05 12:15:28;;;;;;;0.17;0.17;;;;;;;;;;4995364;28;20192;-67
2023/03/05 12:17:59;;;;;;;0.10;0.10;;;;;;;;;;5004576;28;20251;-69
2023/03/05 12:20:32;;;;;;;0.20;0.20;;;;;;;;;;4995109;28;20204;-69
2023/03/05 12:22:58;;;;;;;0.10;0.10;;;;;;;;;;5004547;28;20210;-69
2023/03/05 12:25:27;;;;;;;0.10;0.10;;;;;;;;;;4994908;28;20228;-69
2023/03/05 12:27:55;;;;;;;0.10;0.10;;;;;;;;;;5004395;28;20251;-70
2023/03/05 12:30:40;;;;;;;0.20;0.20;;;;;;;;;;4995232;28;20245;-67
2023/03/05 12:33:28;;;;;;;0.20;0.20;;;;;;;;;;5004402;28;20406;-67
2023/03/05 12:36:15;;;;;;;0.10;0.10;;;;;;;;;;4994718;28;20550;-69
2023/03/05 12:38:41;;;;;;;0.20;0.20;;;;;;;;;;5004531;28;20222;-68
2023/03/05 12:41:41;;;;;;;0.10;0.10;;;;;;;;;;4994208;28;20576;-69
2023/03/05 12:44:25;;;;;;;0.10;0.10;;;;;;;;;;4925888;29;20300;-70
2023/03/05 12:47:12;;;;;;;0.10;0.10;;;;;;;;;;4915469;29;20311;-69
2023/03/05 12:49:40;;;;;;;0.10;0.10;;;;;;;;;;4977665;28;20244;-71
2023/03/05 12:52:21;;;;;;;0.20;0.20;;;;;;;;;;4993768;28;20314;-69
2023/03/05 12:54:57;;;;;;;0.10;0.10;;;;;;;;;;5004628;28;20226;-70
2023/03/05 12:57:25;;;;;;;0.10;0.10;;;;;;;;;;4993735;28;20245;-69
2023/03/05 12:59:55;;;;;;;0.10;0.10;;;;;;;;;;5004766;28;20398;-69
2023/03/05 13:02:26;;;;;;;0.17;0.17;;;;;;;;;;4993598;28;20244;-70
2023/03/05 13:04:57;;;;;;;0.10;0.10;;;;;;;;;;5004338;28;20210;-69
2023/03/05 13:07:23;;;;;;;0.20;0.20;;;;;;;;;;4993395;28;20560;-70
2023/03/05 13:09:53;;;;;;;0.20;0.20;;;;;;;;;;5004506;28;20402;-69
2023/03/05 13:12:20;;;;;;;0.13;0.13;;;;;;;;;;4992885;28;20246;-69
2023/03/05 13:14:47;;;;;;;0.10;0.10;;;;;;;;;;5004450;28;20392;-69
2023/03/05 13:17:28;;;;;;;0.10;0.10;;;;;;;;;;4993278;28;20569;-70
2023/03/05 13:19:55;;;;;;;0.10;0.10;;;;;;;;;;5004037;28;20207;-68
2023/03/05 13:22:23;;;;;;;0.10;0.10;;;;;;;;;;4993148;28;20244;-68
2023/03/05 13:24:49;;;;;;;0.10;0.10;;;;;;;;;;5004073;28;20537;-67
2023/03/05 13:27:20;;;;;;;0.10;0.10;;;;;;;;;;4993161;28;20241;-68
2023/03/05 13:29:50;;;;;;;0.10;0.10;;;;;;;;;;5004055;28;20213;-67
2023/03/05 13:32:22;;;;;;;0.10;0.10;;;;;;;;;;4992975;28;20591;-68
2023/03/05 13:34:48;;;;;;;0.10;0.10;;;;;;;;;;5003975;28;20225;-67
2023/03/05 13:37:17;;;;;;;0.10;0.10;;;;;;;;;;4992952;28;20309;-68
2023/03/05 13:39:47;;;;;;;0.10;0.10;;;;;;;;;;5004314;28;20206;-67
2023/03/05 13:42:15;;;;;;;0.10;0.10;;;;;;;;;;4992566;28;20301;-67
2023/03/05 13:44:42;;;;;;;0.10;0.10;;;;;;;;;;5003564;28;20266;-68
2023/03/05 13:47:10;;;;;;;0.10;0.10;;;;;;;;;;4992767;28;20265;-68
2023/03/05 13:49:36;;;;;;;0.10;0.10;;;;;;;;;;5003534;28;20239;-68
2023/03/05 13:52:03;;;;;;;0.10;0.10;;;;;;;;;;4992662;28;20310;-68
2023/03/05 13:57:01;;;;;;;0.10;0.10;;;;;;;;;;4990675;28;20289;-71
2023/03/05 13:59:29;;;;;;;0.10;0.10;;;;;;;;;;5003625;28;20232;-72
2023/03/05 14:01:56;;;;;;;0.10;0.10;;;;;;;;;;4992469;28;20237;-72
2023/03/05 14:04:24;;;;;;;0.10;0.10;;;;;;;;;;5003198;28;20260;-72
2023/03/05 14:06:53;;;;;;;0.10;0.10;;;;;;;;;;4992548;28;20257;-72
2023/03/05 14:09:21;;;;;;;0.10;0.10;;;;;;;;;;5003493;28;20679;-72
2023/03/05 14:11:55;;;;;;;0.10;0.10;;;;;;;;;;4992536;28;20528;-72
2023/03/05 14:14:23;;;;;;;0.10;0.10;;;;;;;;;;5003433;28;20502;-71
2023/03/05 14:16:49;;;;;;;0.10;0.10;;;;;;;;;;4992550;28;20240;-71
2023/03/05 14:19:32;;;;;;;0.10;0.10;;;;;;;;;;5003399;28;20492;-71
2023/03/05 14:21:58;;;;;;;0.10;0.10;;;;;;;;;;4992449;28;20491;-71
2023/03/05 14:24:27;;;;;;;0.10;0.10;;;;;;;;;;5005953;28;20212;-71
2023/03/05 14:26:55;;;;;;;0.10;0.10;;;;;;;;;;4996514;28;20304;-71
2023/03/05 14:29:24;;;;;;;0.10;0.10;;;;;;;;;;5007459;28;20215;-71
2023/03/05 14:31:51;;;;;;;0.10;0.10;;;;;;;;;;4996518;28;20350;-72
2023/03/05 14:34:21;;;;;;;0.10;0.10;;;;;;;;;;5007183;28;20211;-70
2023/03/05 14:36:47;;;;;;;0.10;0.10;;;;;;;;;;4996431;28;20241;-71
2023/03/05 14:39:26;;;;;;;0.10;0.10;;;;;;;;;;5006868;28;20233;-71
2023/03/05 14:41:52;;;;;;;0.10;0.10;;;;;;;;;;4996193;28;20305;-71
2023/03/05 14:44:24;;;;;;;0.10;0.10;;;;;;;;;;5007067;28;20199;-71
2023/03/05 14:46:52;;;;;;;0.10;0.10;;;;;;;;;;4996309;28;20260;-71
2023/03/05 14:49:18;;;;;;;0.10;0.10;;;;;;;;;;5007147;28;20204;-72
2023/03/05 14:51:45;;;;;;;0.10;0.10;;;;;;;;;;4996222;28;20564;-71